createdAt,value
2023-05-17T00:00:39.073Z,99907.84
2023-05-17T00:05:41.304Z,99914.56
2023-05-17T00:10:43.713Z,99885.41
2023-05-17T00:15:45.889Z,99897.22
2023-05-17T00:20:48.146Z,99892.81
2023-05-17T00:25:50.568Z,99889.09
2023-05-17T00:30:52.810Z,99878.06
2023-05-17T00:35:55.055Z,99885.69
2023-05-17T00:40:57.331Z,99875.00
2023-05-17T00:45:59.550Z,99888.28
2023-05-17T00:51:01.957Z,99893.69
2023-05-17T00:56:04.864Z,99883.00
2023-05-17T01:01:07.421Z,99908.53
2023-05-17T01:06:09.787Z,99872.22
2023-05-17T01:11:35.895Z,99908.78
2023-05-17T01:16:44.935Z,99896.59
2023-05-17T01:22:18.036Z,99898.81
2023-05-17T01:27:22.436Z,99897.00
2023-05-17T01:32:26.569Z,99902.50
2023-05-17T01:37:28.832Z,99894.66
2023-05-17T01:42:33.743Z,99898.13
2023-05-17T01:48:07.472Z,99898.84
2023-05-17T01:53:17.706Z,99903.38
2023-05-17T01:58:23.193Z,99896.09
2023-05-17T02:03:28.148Z,99893.38
2023-05-17T02:08:30.371Z,99877.91
2023-05-17T02:13:32.599Z,99886.44
2023-05-17T02:18:36.121Z,99883.19
2023-05-17T02:23:38.813Z,99898.53
2023-05-17T02:28:41.413Z,99844.34
2023-05-17T02:33:43.785Z,99889.06
2023-05-17T02:38:46.065Z,99878.25
2023-05-17T02:43:48.352Z,99896.50
2023-05-17T02:48:50.697Z,99915.22
2023-05-17T02:53:52.904Z,99890.38
2023-05-17T02:58:57.977Z,99887.88
2023-05-17T03:04:00.214Z,99915.88
2023-05-17T03:09:02.454Z,99923.09
2023-05-17T03:14:04.699Z,99908.94
2023-05-17T03:19:07.091Z,99920.97
2023-05-17T03:24:09.667Z,99919.75
2023-05-17T03:29:12.202Z,99935.44
2023-05-17T03:34:14.346Z,99920.59
2023-05-17T03:39:16.668Z,99930.44
2023-05-17T03:44:18.908Z,99945.84
2023-05-17T03:49:21.398Z,99953.88
2023-05-17T03:54:23.750Z,99975.44
2023-05-17T03:59:26.026Z,99968.13
2023-05-17T04:04:28.390Z,99940.69
2023-05-17T04:09:32.470Z,99979.16
2023-05-17T04:14:34.705Z,99975.44
2023-05-17T04:19:36.934Z,99981.53
2023-05-17T04:24:39.171Z,99985.88
2023-05-17T04:29:41.741Z,99986.16
2023-05-17T04:34:44.062Z,99996.69
2023-05-17T04:39:46.553Z,99967.47
2023-05-17T04:44:49.069Z,99981.22
2023-05-17T04:49:52.017Z,99992.19
2023-05-17T04:54:54.265Z,99992.47
2023-05-17T04:59:56.526Z,99990.09
2023-05-17T05:04:59.041Z,100000.28
2023-05-17T05:10:01.885Z,100007.09
2023-05-17T05:15:04.391Z,99991.31
2023-05-17T05:20:07.578Z,99997.19
2023-05-17T05:25:10.288Z,99995.16
2023-05-17T05:30:13.275Z,100008.84
2023-05-17T05:35:15.618Z,99999.78
2023-05-17T05:40:17.898Z,99996.97
2023-05-17T05:45:20.398Z,100003.50
2023-05-17T05:50:22.730Z,100014.88
2023-05-17T05:55:25.326Z,99986.38
2023-05-17T06:00:27.940Z,100003.94
2023-05-17T06:05:30.496Z,99989.28
2023-05-17T06:10:33.257Z,99976.22
2023-05-17T06:15:35.549Z,99957.69
2023-05-17T06:20:37.836Z,99986.81
2023-05-17T06:25:40.873Z,99988.84
2023-05-17T06:30:43.159Z,99993.16
2023-05-17T06:35:55.532Z,99975.03
2023-05-17T06:41:01.894Z,99996.94
2023-05-17T06:46:04.890Z,100002.09
2023-05-17T06:51:08.253Z,99982.78
2023-05-17T06:56:10.509Z,100004.53
2023-05-17T07:01:14.065Z,99998.34
2023-05-17T07:06:16.465Z,99958.53
2023-05-17T07:11:18.748Z,99959.38
2023-05-17T07:16:21.084Z,99973.22
2023-05-17T07:21:26.130Z,99974.47
2023-05-17T07:26:28.407Z,99958.78
2023-05-17T07:31:30.609Z,99967.38
2023-05-17T07:36:33.086Z,99974.13
2023-05-17T07:41:35.871Z,99943.78
2023-05-17T07:46:38.902Z,99943.03
2023-05-17T07:51:41.504Z,99959.09
2023-05-17T07:56:43.816Z,99932.22
2023-05-17T08:01:46.147Z,99958.75
2023-05-17T08:06:48.939Z,99924.66
2023-05-17T08:11:51.961Z,99896.47
2023-05-17T08:16:54.270Z,99924.44
2023-05-17T08:21:56.617Z,99921.78
2023-05-17T08:26:59.036Z,99924.28
2023-05-17T08:32:01.670Z,99922.66
2023-05-17T08:37:04.055Z,99922.97
2023-05-17T08:42:09.216Z,99895.25
2023-05-17T08:47:13.061Z,99929.38
2023-05-17T08:52:16.099Z,99939.72
2023-05-17T08:57:18.651Z,99939.44
2023-05-17T09:02:22.491Z,99936.94
2023-05-17T09:07:25.228Z,99932.56
2023-05-17T09:12:27.482Z,99914.44
2023-05-17T09:17:29.756Z,99917.84
2023-05-17T09:22:32.350Z,99902.00
2023-05-17T09:27:34.703Z,99892.59
2023-05-17T09:32:43.486Z,99897.44
2023-05-17T09:37:47.584Z,99896.28
2023-05-17T09:42:50.185Z,99877.97
2023-05-17T09:47:53.096Z,99847.16
2023-05-17T09:52:55.564Z,99838.28
2023-05-17T09:58:04.465Z,99875.56
2023-05-17T10:03:07.476Z,99861.84
2023-05-17T10:08:11.485Z,99848.59
2023-05-17T10:13:16.458Z,99852.03
2023-05-17T10:18:19.203Z,99822.13
2023-05-17T10:23:22.939Z,99824.75
2023-05-17T10:28:27.408Z,99824.00
2023-05-17T10:33:32.699Z,99821.00
2023-05-17T10:38:41.663Z,99814.09
2023-05-17T10:43:46.923Z,99806.13
2023-05-17T10:48:53.349Z,99807.19
2023-05-17T10:54:18.980Z,99778.53
2023-05-17T10:59:29.953Z,99764.75
2023-05-17T11:04:43.716Z,99794.78
2023-05-17T11:09:49.842Z,99774.38
2023-05-17T11:14:56.060Z,99786.06
2023-05-17T11:20:07.601Z,99778.13
2023-05-17T11:25:14.666Z,99766.66
2023-05-17T11:30:22.813Z,99765.69
2023-05-17T11:35:29.151Z,99754.88
2023-05-17T11:40:32.714Z,99740.00
2023-05-17T11:45:53.511Z,99758.41
2023-05-17T11:50:58.036Z,99697.25
2023-05-17T11:56:07.482Z,99750.19
2023-05-17T12:01:09.842Z,99681.97
2023-05-17T12:06:17.738Z,99682.66
2023-05-17T12:11:22.172Z,99738.00
2023-05-17T12:16:25.822Z,99676.78
2023-05-17T12:21:28.257Z,99696.41
2023-05-17T12:26:31.017Z,99667.94
2023-05-17T12:31:39.478Z,99683.66
2023-05-17T12:36:42.388Z,99652.47
2023-05-17T12:41:45.103Z,99725.13
2023-05-17T12:46:54.214Z,99725.50
2023-05-17T12:51:56.720Z,99716.56
2023-05-17T12:56:59.110Z,99686.66
2023-05-17T13:02:02.076Z,99668.19
2023-05-17T13:07:05.978Z,99666.31
2023-05-17T13:12:08.653Z,99721.47
2023-05-17T13:17:25.512Z,99689.16
2023-05-17T13:22:28.300Z,99691.91
2023-05-17T13:27:30.693Z,99656.00
2023-05-17T13:32:33.206Z,99665.75
2023-05-17T13:37:36.775Z,99678.38
2023-05-17T13:42:39.137Z,99616.78
2023-05-17T13:47:41.878Z,99650.50
2023-05-17T13:52:44.913Z,99698.53
2023-05-17T13:57:47.665Z,99672.97
2023-05-17T14:02:50.245Z,99684.16
2023-05-17T14:07:53.109Z,99687.50
2023-05-17T14:12:55.331Z,99670.53
2023-05-17T14:17:57.660Z,99644.00
2023-05-17T14:23:00.959Z,99640.31
2023-05-17T14:28:03.462Z,99639.09
2023-05-17T14:33:05.800Z,99645.19
2023-05-17T14:38:08.216Z,99634.50
2023-05-17T14:43:10.658Z,99612.78
2023-05-17T14:48:13.145Z,99632.38
2023-05-17T14:53:15.572Z,99601.69
2023-05-17T14:58:17.997Z,99580.28
2023-05-17T15:03:22.308Z,99601.63
2023-05-17T15:08:25.384Z,99599.47
2023-05-17T15:13:27.827Z,99635.41
2023-05-17T15:18:30.218Z,99602.78
2023-05-17T15:23:32.706Z,99629.06
2023-05-17T15:28:35.118Z,99617.28
2023-05-17T15:33:39.901Z,99582.38
2023-05-17T15:38:42.662Z,99593.38
2023-05-17T15:43:45.297Z,99586.66
2023-05-17T15:48:47.713Z,99587.47
2023-05-17T15:53:50.263Z,99590.88
2023-05-17T15:58:53.040Z,99565.66
2023-05-17T16:03:55.370Z,99569.53
2023-05-17T16:08:57.724Z,99574.69
2023-05-17T16:14:00.188Z,99608.63
2023-05-17T16:19:04.873Z,99622.88
2023-05-17T16:24:07.604Z,99611.72
2023-05-17T16:29:09.887Z,99618.09
2023-05-17T16:34:12.252Z,99642.59
2023-05-17T16:39:14.634Z,99654.28
2023-05-17T16:44:17.106Z,99642.88
2023-05-17T16:49:19.685Z,99572.06
2023-05-17T16:54:22.042Z,99639.63
2023-05-17T16:59:24.456Z,99684.63
2023-05-17T17:04:27.001Z,99695.78
2023-05-17T17:09:29.404Z,99703.59
2023-05-17T17:14:32.443Z,99685.03
2023-05-17T17:19:34.856Z,99662.00
2023-05-17T17:24:37.135Z,99668.88
2023-05-17T17:29:39.468Z,99684.50
2023-05-17T17:34:41.725Z,99690.06
2023-05-17T17:39:44.197Z,99703.31
2023-05-17T17:44:46.773Z,99705.69
2023-05-17T17:49:49.215Z,99657.13
2023-05-17T17:54:51.758Z,99696.78
2023-05-17T17:59:55.083Z,99662.97
2023-05-17T18:04:57.658Z,99705.16
2023-05-17T18:10:02.188Z,99649.59
2023-05-17T18:15:06.490Z,99694.31
2023-05-17T18:20:09.264Z,99725.81
2023-05-17T18:25:11.608Z,99708.47
2023-05-17T18:30:14.390Z,99693.38
2023-05-17T18:35:17.806Z,99681.91
2023-05-17T18:40:20.271Z,99685.47
2023-05-17T18:45:22.814Z,99761.25
2023-05-17T18:50:25.251Z,99788.22
2023-05-17T18:55:27.789Z,99774.84
2023-05-17T19:00:30.572Z,99750.34
2023-05-17T19:05:33.203Z,99799.38
2023-05-17T19:10:35.596Z,99771.03
2023-05-17T19:15:38.045Z,99735.84
2023-05-17T19:20:40.526Z,99816.19
2023-05-17T19:25:42.967Z,99715.91
2023-05-17T19:30:45.346Z,99729.53
2023-05-17T19:35:47.853Z,99768.88
2023-05-17T19:40:50.429Z,99798.06
2023-05-17T19:45:52.886Z,99811.56
2023-05-17T19:50:56.729Z,99759.38
2023-05-17T19:56:06.359Z,99740.97
2023-05-17T20:01:08.581Z,99855.81
2023-05-17T20:06:14.621Z,99857.56
2023-05-17T20:11:17.137Z,99783.31
2023-05-17T20:16:19.580Z,99763.94
2023-05-17T20:21:23.315Z,99775.47
2023-05-17T20:26:27.403Z,99850.25
2023-05-17T20:31:29.808Z,99804.59
2023-05-17T20:36:32.665Z,99820.09
2023-05-17T20:41:35.002Z,99783.00
2023-05-17T20:46:37.446Z,99781.97
2023-05-17T20:51:40.262Z,99764.91
2023-05-17T20:56:42.810Z,99833.91
2023-05-17T21:01:45.248Z,99881.78
2023-05-17T21:06:47.773Z,99863.47
2023-05-17T21:11:52.467Z,99798.53
2023-05-17T21:16:56.509Z,99887.91
2023-05-17T21:21:58.917Z,99863.56
2023-05-17T21:27:03.496Z,99839.41
2023-05-17T21:32:06.436Z,99857.50
2023-05-17T21:37:08.817Z,99835.94
2023-05-17T21:42:11.463Z,99811.25
2023-05-17T21:47:13.966Z,99844.44
2023-05-17T21:52:16.582Z,99855.94
2023-05-17T21:57:21.555Z,99841.81
2023-05-17T22:02:24.089Z,99913.66
2023-05-17T22:07:26.721Z,99844.72
2023-05-17T22:12:29.198Z,99844.19
2023-05-17T22:17:46.913Z,99822.06
2023-05-17T22:22:50.770Z,99934.09
2023-05-17T22:27:53.179Z,99808.41
2023-05-17T22:32:57.604Z,99894.19
2023-05-17T22:38:00.201Z,99855.53
2023-05-17T22:43:02.626Z,99930.28
2023-05-17T22:48:06.131Z,99928.53
2023-05-17T22:53:08.560Z,99936.72
2023-05-17T22:58:11.227Z,99935.94
2023-05-17T23:03:14.161Z,99926.50
2023-05-17T23:08:16.498Z,99933.25
2023-05-17T23:13:19.162Z,99946.81
2023-05-17T23:18:21.686Z,99906.97
2023-05-17T23:23:24.481Z,99894.44
2023-05-17T23:28:27.136Z,99822.69
2023-05-17T23:33:32.438Z,99807.91
2023-05-17T23:38:34.802Z,99852.78
2023-05-17T23:43:37.124Z,99876.75
2023-05-17T23:48:39.684Z,99915.44
2023-05-17T23:53:42.669Z,99918.56
2023-05-17T23:58:45.951Z,99843.00
